createdAt,value
2023-05-05T00:02:07.228Z,10.18
2023-05-05T00:09:27.037Z,10.32
2023-05-05T00:16:45.531Z,10.82
2023-05-05T00:24:04.374Z,9.93
2023-05-05T00:31:24.287Z,10.40
2023-05-05T00:38:42.720Z,9.63
2023-05-05T00:46:03.317Z,9.73
2023-05-05T00:53:23.558Z,10.57
2023-05-05T01:00:42.146Z,9.95
2023-05-05T01:08:15.156Z,10.93
2023-05-05T01:15:37.745Z,11.23
2023-05-05T01:23:01.290Z,10.70
2023-05-05T01:37:47.728Z,11.05
2023-05-05T01:45:09.129Z,11.57
2023-05-05T01:52:28.117Z,11.05
2023-05-05T01:59:48.148Z,11.13
2023-05-05T02:07:06.636Z,10.55
2023-05-05T02:14:28.284Z,11.43
2023-05-05T02:21:48.190Z,10.90
2023-05-05T02:29:08.786Z,11.00
2023-05-05T02:36:30.105Z,10.40
2023-05-05T02:43:56.204Z,9.75
2023-05-05T02:51:14.933Z,9.90
2023-05-05T02:58:39.525Z,10.13
2023-05-05T03:06:05.685Z,11.30
2023-05-05T03:13:26.524Z,11.43
2023-05-05T03:20:45.206Z,10.20
2023-05-05T03:28:08.010Z,10.68
2023-05-05T03:35:27.267Z,9.95
2023-05-05T03:42:46.032Z,11.68
2023-05-05T03:50:07.830Z,11.27
2023-05-05T03:57:27.204Z,10.48
2023-05-05T04:04:45.713Z,10.82
2023-05-05T04:12:07.748Z,11.13
2023-05-05T04:19:26.158Z,10.65
2023-05-05T04:26:45.277Z,10.13
2023-05-05T04:34:05.683Z,10.57
2023-05-05T04:41:24.614Z,9.82
2023-05-05T04:48:43.334Z,10.68
2023-05-05T04:56:03.673Z,10.70
2023-05-05T05:03:22.138Z,10.88
2023-05-05T05:10:41.094Z,10.07
2023-05-05T05:18:01.560Z,9.77
2023-05-05T05:25:20.469Z,10.40
2023-05-05T05:32:40.236Z,9.00
2023-05-05T05:40:00.886Z,8.65
2023-05-05T05:47:22.555Z,9.03
2023-05-05T05:54:42.136Z,8.80
2023-05-05T06:02:03.784Z,9.10
2023-05-05T06:09:25.224Z,9.57
2023-05-05T06:16:45.827Z,10.05
2023-05-05T06:24:09.950Z,9.40
2023-05-05T06:31:28.498Z,8.70
2023-05-05T06:38:47.457Z,8.98
2023-05-05T06:46:07.752Z,7.78
2023-05-05T06:53:26.320Z,7.53
2023-05-05T07:00:44.601Z,8.13
2023-05-05T07:08:04.373Z,6.65
2023-05-05T07:15:28.065Z,6.63
2023-05-05T07:22:47.611Z,7.20
2023-05-05T07:30:13.214Z,6.97
2023-05-05T07:37:32.897Z,7.13
2023-05-05T07:44:51.040Z,6.45
2023-05-05T07:52:10.755Z,5.85
2023-05-05T07:59:29.924Z,5.72
2023-05-05T08:06:48.360Z,5.15
2023-05-05T08:14:08.807Z,5.22
2023-05-05T08:21:27.802Z,4.57
2023-05-05T08:28:46.841Z,4.70
2023-05-05T08:36:07.148Z,4.47
2023-05-05T08:43:25.280Z,4.10
2023-05-05T08:50:45.261Z,4.20
2023-05-05T08:58:05.191Z,3.65
2023-05-05T09:05:23.631Z,3.60
2023-05-05T09:12:42.389Z,2.88
2023-05-05T09:20:07.373Z,3.13
2023-05-05T09:27:25.943Z,3.17
2023-05-05T09:34:44.557Z,2.97
2023-05-05T09:42:05.032Z,3.38
2023-05-05T09:49:25.700Z,3.05
2023-05-05T09:56:44.289Z,3.20
2023-05-05T10:04:03.781Z,2.95
2023-05-05T10:11:22.357Z,3.30
2023-05-05T10:18:44.069Z,3.35
2023-05-05T10:26:07.679Z,3.13
2023-05-05T10:33:32.740Z,3.00
2023-05-05T10:40:51.759Z,3.08
2023-05-05T10:48:15.787Z,3.20
2023-05-05T10:55:38.015Z,2.72
2023-05-05T11:17:49.894Z,2.45
2023-05-05T11:25:41.649Z,2.97
2023-05-05T11:33:37.039Z,2.80
2023-05-05T11:41:00.369Z,8.05
2023-05-05T11:48:28.819Z,2.40
2023-05-05T11:55:47.138Z,2.00
2023-05-05T12:03:07.092Z,2.50
2023-05-05T12:10:25.829Z,2.53
2023-05-05T12:17:46.322Z,2.60
2023-05-05T12:25:07.873Z,2.28
2023-05-05T12:32:28.186Z,2.00
2023-05-05T12:39:46.897Z,2.08
2023-05-05T12:47:07.514Z,2.40
2023-05-05T12:54:29.654Z,2.58
2023-05-05T13:01:53.106Z,2.60
2023-05-05T13:09:25.835Z,2.30
2023-05-05T13:16:44.086Z,2.20
2023-05-05T13:24:20.773Z,2.10
2023-05-05T13:31:47.029Z,2.60
2023-05-05T13:39:06.585Z,2.60
2023-05-05T13:46:26.525Z,2.22
2023-05-05T13:53:47.892Z,2.55
2023-05-05T14:01:06.816Z,2.40
2023-05-05T14:08:25.572Z,2.60
2023-05-05T14:15:45.624Z,2.20
2023-05-05T14:23:04.772Z,2.53
2023-05-05T14:30:23.535Z,2.40
2023-05-05T14:37:43.619Z,2.53
2023-05-05T14:45:03.656Z,2.30
2023-05-05T14:52:21.929Z,2.00
2023-05-05T14:59:42.267Z,2.25
2023-05-05T15:07:00.981Z,2.05
2023-05-05T15:14:19.401Z,2.13
2023-05-05T15:21:39.054Z,2.13
2023-05-05T15:28:57.675Z,2.20
2023-05-05T15:36:17.355Z,2.28
2023-05-05T15:43:39.014Z,2.20
2023-05-05T15:50:57.562Z,2.10
2023-05-05T15:58:16.010Z,2.20
2023-05-05T16:05:36.361Z,2.10
2023-05-05T16:12:55.405Z,2.42
2023-05-05T16:20:14.537Z,2.20
2023-05-05T16:27:34.320Z,2.70
2023-05-05T16:34:52.904Z,2.28
2023-05-05T16:42:11.487Z,2.00
2023-05-05T16:49:31.503Z,2.13
2023-05-05T16:56:51.198Z,2.42
2023-05-05T17:04:09.972Z,1.90
2023-05-05T17:11:29.937Z,2.00
2023-05-05T17:18:48.415Z,2.65
2023-05-05T17:26:06.770Z,2.55
2023-05-05T17:33:26.494Z,2.80
2023-05-05T17:40:45.325Z,2.70
2023-05-05T17:48:04.082Z,3.08
2023-05-05T17:55:24.569Z,3.28
2023-05-05T18:02:43.578Z,3.35
2023-05-05T18:10:01.906Z,4.40
2023-05-05T18:17:22.079Z,5.28
2023-05-05T18:24:40.424Z,4.72
2023-05-05T18:31:59.658Z,4.30
2023-05-05T18:39:19.338Z,4.47
2023-05-05T18:46:38.220Z,4.80
2023-05-05T18:53:57.156Z,4.20
2023-05-05T19:01:17.605Z,4.50
2023-05-05T19:08:36.969Z,5.03
2023-05-05T19:15:57.657Z,4.53
2023-05-05T19:23:23.434Z,4.10
2023-05-05T19:30:49.029Z,6.18
2023-05-05T19:38:09.977Z,3.85
2023-05-05T19:45:30.405Z,4.45
2023-05-05T19:52:48.903Z,3.83
2023-05-05T20:00:10.730Z,4.30
2023-05-05T20:07:31.469Z,4.00
2023-05-05T20:14:50.454Z,4.68
2023-05-05T20:22:09.622Z,4.88
2023-05-05T20:29:30.539Z,4.95
2023-05-05T20:36:49.520Z,4.50
2023-05-05T20:44:09.908Z,4.55
2023-05-05T20:51:32.221Z,4.70
2023-05-05T20:58:51.264Z,4.90
2023-05-05T21:06:10.452Z,5.05
2023-05-05T21:13:31.360Z,4.70
2023-05-05T21:20:49.799Z,5.65
2023-05-05T21:28:08.792Z,5.32
2023-05-05T21:35:28.637Z,5.20
2023-05-05T21:42:47.338Z,5.57
2023-05-05T21:50:06.706Z,5.63
2023-05-05T21:57:27.359Z,5.57
2023-05-05T22:04:48.803Z,5.22
2023-05-05T22:12:08.828Z,5.28
2023-05-05T22:19:29.521Z,5.65
2023-05-05T22:26:48.614Z,5.53
2023-05-05T22:34:07.016Z,5.43
2023-05-05T22:41:26.984Z,5.45
2023-05-05T22:48:45.241Z,5.45
2023-05-05T22:56:04.866Z,4.75
2023-05-05T23:03:25.107Z,5.18
2023-05-05T23:10:43.516Z,5.13
2023-05-05T23:18:01.909Z,5.47
2023-05-05T23:25:21.789Z,4.75
2023-05-05T23:32:40.235Z,4.53
2023-05-05T23:39:58.844Z,5.20
2023-05-05T23:47:18.756Z,5.15
2023-05-05T23:54:37.444Z,4.63
